Airfield :
LOGIN :

Register | Disclaimer

   EN    FR    IT 

 










Legend :    VFR   Marginal VFR   IFR   Intensive IFR   Very Intensive IFR
Visi :
Ceiling :
>= 8 km
>= 3000ft
5 to 8 km
1000 to 3000 ft
1500m to 5 km
500 to 1000 ft
800 to 1500m
200 to 500 ft
< 800m
< 200 ft
Symbols :   Thunderstorms  Fog  Heavy snow  Heavy precipitations  Wind > 20 kt
SIGMETs :     Misc.  Thunderstorms  Icing  Turbulence  Mountain Waves  Volcanic Ashes







- Airport Elevation : 240 ft
- IATA code : VLC


LEVC - Valencia Manises

CURRENT METAR :
  • 301400Z 11009KT 050V150 CAVOK 20/09 Q1024 NOSIG

EXPIRED METARs :
  • 301330Z 11008KT 070V150 CAVOK 20/08 Q1024 NOSIG
  • 301300Z 10008KT 050V140 CAVOK 20/09 Q1024 NOSIG
  • 301230Z 12007KT 070V160 CAVOK 21/09 Q1024 NOSIG
  • 301200Z 13008KT 110V170 CAVOK 20/09 Q1024 NOSIG
  • 301130Z 13005KT 080V160 CAVOK 20/08 Q1025 NOSIG

TAF TAF LEVC
Valid from the 30 at 12:00 until the 31 at 12:00 UTC


301100Z 3012/3112 10010KT 9999 FEW030 TX21/3013Z TN08/3106Z
BECMG 3018/3021 VRB04KT
PROB30
TEMPO 3100/3106 2000 BR BKN006
No reported NOTAMs for that airfield.



MET'MAP, your aeronautical weather chart ! - Copyright ORBIFLY December 2007 - Disclaimer

ORBIFLY MET'MAP TEAM :

Programming & Development : Alexandra Zaïnal
Concept & Development : Baudouin d'Aumeries
Co-Development & Prog : Marc-Olivier Méhu
Technical & hardware support : Manuel Goepfert

Contact : metmap@orbifly.com




SOURCES & CREDITS :

   NOAA